Aviation Digital Data Service (ADDS)

Output produced by TAFs form (0436 UTC 03 September 2014)
found at http://aviationweather.gov/adds/tafs/
 
KRIL 022338Z 0300/0324 26008G16KT P6SM SKC 
     FM030400 VRB03KT P6SM SKC 
     FM031800 26008KT P6SM FEW150 
     FM032000 24012G22KT P6SM SCT150